Cruz Calle, Texas
Current Conditions -  °F | °C
As of 4:35 PM on Friday 24 Oct 2014 (Local Time) from KHBV Reporting Station
Clear Clear  
Wind Chill: 87°   Ceiling: Unl
Heat Index: 87°   Visibility: 10mi
Dew Point: 55°   Wind: 5mph
Humidity: 33%   Direction: 70°ENE
Pressure: 30.08"   Gusts: NA
Location:  27.5358°N, 98.3937°W
Report Text: KHBV 242135Z AUTO 07004KT 10SM CLR 31/13 A3008 RMK AO2 T03060126
Loading
Personal Weather Stations






























Interactive Weather Map
Tropical Storm Tracking
New forecast layout! Learn more

10-Day Weather Forecast

Advertisements
Track Severe Weather on mobile